sensor_id;sensor_type;location;lat;lon;timestamp;P1;durP1;ratioP1;P2;durP2;ratioP2
14040;SDS011;7095;51.388;6.196;2023-08-17T00:00:23;6.40;;;3.10;;
14040;SDS011;7095;51.388;6.196;2023-08-17T00:02:52;6.57;;;2.83;;
14040;SDS011;7095;51.388;6.196;2023-08-17T00:05:21;5.20;;;3.27;;
14040;SDS011;7095;51.388;6.196;2023-08-17T00:07:49;7.90;;;3.33;;
14040;SDS011;7095;51.388;6.196;2023-08-17T00:10:18;9.03;;;3.27;;
14040;SDS011;7095;51.388;6.196;2023-08-17T00:12:46;6.63;;;3.47;;
14040;SDS011;7095;51.388;6.196;2023-08-17T00:15:15;5.27;;;3.37;;
14040;SDS011;7095;51.388;6.196;2023-08-17T00:17:45;4.63;;;3.40;;
14040;SDS011;7095;51.388;6.196;2023-08-17T00:20:13;6.60;;;3.40;;
14040;SDS011;7095;51.388;6.196;2023-08-17T00:22:42;5.47;;;3.57;;
14040;SDS011;7095;51.388;6.196;2023-08-17T00:25:11;6.07;;;3.07;;
14040;SDS011;7095;51.388;6.196;2023-08-17T00:27:40;6.10;;;3.20;;
14040;SDS011;7095;51.388;6.196;2023-08-17T00:30:09;5.57;;;3.30;;
14040;SDS011;7095;51.388;6.196;2023-08-17T00:32:38;6.63;;;3.30;;
14040;SDS011;7095;51.388;6.196;2023-08-17T00:35:08;8.60;;;3.50;;
14040;SDS011;7095;51.388;6.196;2023-08-17T00:37:39;9.80;;;3.67;;
14040;SDS011;7095;51.388;6.196;2023-08-17T00:40:07;7.17;;;3.63;;
14040;SDS011;7095;51.388;6.196;2023-08-17T00:42:37;7.53;;;3.77;;
14040;SDS011;7095;51.388;6.196;2023-08-17T00:45:06;4.03;;;3.27;;
14040;SDS011;7095;51.388;6.196;2023-08-17T00:47:35;5.93;;;3.83;;
14040;SDS011;7095;51.388;6.196;2023-08-17T00:50:04;4.47;;;3.27;;
14040;SDS011;7095;51.388;6.196;2023-08-17T00:52:35;9.97;;;4.23;;
14040;SDS011;7095;51.388;6.196;2023-08-17T00:55:04;5.70;;;3.97;;
14040;SDS011;7095;51.388;6.196;2023-08-17T00:57:33;7.63;;;4.20;;
14040;SDS011;7095;51.388;6.196;2023-08-17T01:00:03;9.53;;;4.90;;
14040;SDS011;7095;51.388;6.196;2023-08-17T01:02:35;10.97;;;4.77;;
14040;SDS011;7095;51.388;6.196;2023-08-17T01:05:04;5.77;;;4.00;;
14040;SDS011;7095;51.388;6.196;2023-08-17T01:07:34;8.33;;;4.40;;
14040;SDS011;7095;51.388;6.196;2023-08-17T01:10:04;7.60;;;4.37;;
14040;SDS011;7095;51.388;6.196;2023-08-17T01:12:37;7.93;;;4.37;;
14040;SDS011;7095;51.388;6.196;2023-08-17T01:15:10;6.53;;;4.83;;
14040;SDS011;7095;51.388;6.196;2023-08-17T01:17:43;10.60;;;4.93;;
14040;SDS011;7095;51.388;6.196;2023-08-17T01:20:16;6.93;;;4.40;;
14040;SDS011;7095;51.388;6.196;2023-08-17T01:22:48;7.13;;;4.70;;
14040;SDS011;7095;51.388;6.196;2023-08-17T01:25:22;6.07;;;4.50;;
14040;SDS011;7095;51.388;6.196;2023-08-17T01:27:50;4.97;;;4.47;;
14040;SDS011;7095;51.388;6.196;2023-08-17T01:30:22;5.40;;;4.23;;
14040;SDS011;7095;51.388;6.196;2023-08-17T01:32:53;6.60;;;4.30;;
14040;SDS011;7095;51.388;6.196;2023-08-17T01:35:30;6.33;;;3.93;;
14040;SDS011;7095;51.388;6.196;2023-08-17T01:38:07;8.10;;;4.53;;
14040;SDS011;7095;51.388;6.196;2023-08-17T01:40:41;6.53;;;4.00;;
14040;SDS011;7095;51.388;6.196;2023-08-17T01:43:11;7.27;;;4.03;;
14040;SDS011;7095;51.388;6.196;2023-08-17T01:45:43;6.53;;;4.30;;
14040;SDS011;7095;51.388;6.196;2023-08-17T01:48:12;6.67;;;4.03;;
14040;SDS011;7095;51.388;6.196;2023-08-17T01:50:40;7.90;;;4.00;;
14040;SDS011;7095;51.388;6.196;2023-08-17T01:53:08;7.30;;;3.97;;
14040;SDS011;7095;51.388;6.196;2023-08-17T01:55:38;8.93;;;3.93;;
14040;SDS011;7095;51.388;6.196;2023-08-17T01:58:08;8.50;;;4.00;;
14040;SDS011;7095;51.388;6.196;2023-08-17T02:00:37;10.50;;;4.50;;
14040;SDS011;7095;51.388;6.196;2023-08-17T02:03:05;6.73;;;3.97;;
14040;SDS011;7095;51.388;6.196;2023-08-17T02:05:34;4.37;;;3.30;;
14040;SDS011;7095;51.388;6.196;2023-08-17T02:08:02;15.80;;;4.27;;
14040;SDS011;7095;51.388;6.196;2023-08-17T02:10:31;3.57;;;3.20;;
14040;SDS011;7095;51.388;6.196;2023-08-17T02:12:59;9.33;;;3.70;;
14040;SDS011;7095;51.388;6.196;2023-08-17T02:15:45;8.33;;;3.80;;
14040;SDS011;7095;51.388;6.196;2023-08-17T02:18:14;8.27;;;3.83;;
14040;SDS011;7095;51.388;6.196;2023-08-17T02:20:43;5.17;;;3.93;;
14040;SDS011;7095;51.388;6.196;2023-08-17T02:23:11;5.70;;;3.50;;
14040;SDS011;7095;51.388;6.196;2023-08-17T02:25:40;8.03;;;4.63;;
14040;SDS011;7095;51.388;6.196;2023-08-17T02:28:08;7.17;;;3.70;;
14040;SDS011;7095;51.388;6.196;2023-08-17T02:30:37;8.53;;;4.67;;
14040;SDS011;7095;51.388;6.196;2023-08-17T02:33:07;7.53;;;3.80;;
14040;SDS011;7095;51.388;6.196;2023-08-17T02:35:35;6.07;;;3.83;;
14040;SDS011;7095;51.388;6.196;2023-08-17T02:38:04;8.50;;;4.47;;
14040;SDS011;7095;51.388;6.196;2023-08-17T02:40:33;8.43;;;3.57;;
14040;SDS011;7095;51.388;6.196;2023-08-17T02:43:01;6.47;;;3.70;;
14040;SDS011;7095;51.388;6.196;2023-08-17T02:45:30;4.03;;;3.53;;
14040;SDS011;7095;51.388;6.196;2023-08-17T02:47:59;8.53;;;3.50;;
14040;SDS011;7095;51.388;6.196;2023-08-17T02:50:29;10.33;;;4.23;;
14040;SDS011;7095;51.388;6.196;2023-08-17T02:52:57;7.73;;;3.80;;
14040;SDS011;7095;51.388;6.196;2023-08-17T02:55:26;9.43;;;4.17;;
14040;SDS011;7095;51.388;6.196;2023-08-17T02:57:55;4.87;;;3.40;;
14040;SDS011;7095;51.388;6.196;2023-08-17T03:00:24;6.70;;;4.00;;
14040;SDS011;7095;51.388;6.196;2023-08-17T03:02:53;8.70;;;3.90;;
14040;SDS011;7095;51.388;6.196;2023-08-17T03:05:21;8.43;;;3.90;;
14040;SDS011;7095;51.388;6.196;2023-08-17T03:07:51;10.37;;;4.37;;
14040;SDS011;7095;51.388;6.196;2023-08-17T03:10:20;7.80;;;3.90;;
14040;SDS011;7095;51.388;6.196;2023-08-17T03:12:49;6.87;;;4.13;;
14040;SDS011;7095;51.388;6.196;2023-08-17T03:15:19;8.77;;;3.80;;
14040;SDS011;7095;51.388;6.196;2023-08-17T03:17:47;8.00;;;3.73;;
14040;SDS011;7095;51.388;6.196;2023-08-17T03:20:16;7.07;;;4.33;;
14040;SDS011;7095;51.388;6.196;2023-08-17T03:22:44;6.63;;;3.73;;
14040;SDS011;7095;51.388;6.196;2023-08-17T03:25:15;8.57;;;4.27;;
14040;SDS011;7095;51.388;6.196;2023-08-17T03:27:45;7.83;;;4.57;;
14040;SDS011;7095;51.388;6.196;2023-08-17T03:30:14;6.97;;;4.23;;
14040;SDS011;7095;51.388;6.196;2023-08-17T03:32:42;8.83;;;3.97;;
14040;SDS011;7095;51.388;6.196;2023-08-17T03:35:11;5.67;;;3.87;;
14040;SDS011;7095;51.388;6.196;2023-08-17T03:37:40;8.00;;;3.93;;
14040;SDS011;7095;51.388;6.196;2023-08-17T03:40:10;7.37;;;4.23;;
14040;SDS011;7095;51.388;6.196;2023-08-17T03:42:41;9.13;;;4.10;;
14040;SDS011;7095;51.388;6.196;2023-08-17T03:45:10;11.20;;;4.70;;
14040;SDS011;7095;51.388;6.196;2023-08-17T03:47:38;13.87;;;5.30;;
14040;SDS011;7095;51.388;6.196;2023-08-17T03:50:07;8.10;;;4.70;;
14040;SDS011;7095;51.388;6.196;2023-08-17T03:52:37;9.03;;;5.00;;
14040;SDS011;7095;51.388;6.196;2023-08-17T03:55:05;7.97;;;4.73;;
14040;SDS011;7095;51.388;6.196;2023-08-17T03:57:35;9.63;;;4.80;;
14040;SDS011;7095;51.388;6.196;2023-08-17T04:00:08;8.70;;;4.80;;
14040;SDS011;7095;51.388;6.196;2023-08-17T04:02:41;6.77;;;5.07;;
14040;SDS011;7095;51.388;6.196;2023-08-17T04:05:13;7.93;;;5.03;;
14040;SDS011;7095;51.388;6.196;2023-08-17T04:07:42;8.87;;;5.20;;
14040;SDS011;7095;51.388;6.196;2023-08-17T04:10:11;8.40;;;5.13;;
14040;SDS011;7095;51.388;6.196;2023-08-17T04:12:39;13.60;;;5.43;;
14040;SDS011;7095;51.388;6.196;2023-08-17T04:15:09;7.07;;;5.03;;
14040;SDS011;7095;51.388;6.196;2023-08-17T04:17:38;11.90;;;5.50;;
14040;SDS011;7095;51.388;6.196;2023-08-17T04:20:07;8.90;;;5.37;;
14040;SDS011;7095;51.388;6.196;2023-08-17T04:22:36;15.37;;;5.83;;
14040;SDS011;7095;51.388;6.196;2023-08-17T04:25:05;9.57;;;5.77;;
14040;SDS011;7095;51.388;6.196;2023-08-17T04:27:34;10.30;;;5.80;;
14040;SDS011;7095;51.388;6.196;2023-08-17T04:30:03;10.20;;;6.03;;
14040;SDS011;7095;51.388;6.196;2023-08-17T04:32:42;11.23;;;6.20;;
14040;SDS011;7095;51.388;6.196;2023-08-17T04:35:11;13.37;;;5.70;;
14040;SDS011;7095;51.388;6.196;2023-08-17T04:37:39;10.20;;;5.53;;
14040;SDS011;7095;51.388;6.196;2023-08-17T04:40:08;10.40;;;5.47;;
14040;SDS011;7095;51.388;6.196;2023-08-17T04:42:38;8.20;;;6.33;;
14040;SDS011;7095;51.388;6.196;2023-08-17T04:45:07;13.03;;;6.33;;
14040;SDS011;7095;51.388;6.196;2023-08-17T04:47:39;11.63;;;6.00;;
14040;SDS011;7095;51.388;6.196;2023-08-17T04:50:09;12.97;;;6.73;;
14040;SDS011;7095;51.388;6.196;2023-08-17T04:52:43;10.13;;;6.10;;
14040;SDS011;7095;51.388;6.196;2023-08-17T04:55:12;11.97;;;6.50;;
14040;SDS011;7095;51.388;6.196;2023-08-17T04:57:42;11.73;;;5.57;;
14040;SDS011;7095;51.388;6.196;2023-08-17T05:00:13;13.23;;;6.10;;
14040;SDS011;7095;51.388;6.196;2023-08-17T05:02:42;10.07;;;6.37;;
14040;SDS011;7095;51.388;6.196;2023-08-17T05:05:12;7.67;;;5.37;;
14040;SDS011;7095;51.388;6.196;2023-08-17T05:07:41;11.97;;;5.57;;
14040;SDS011;7095;51.388;6.196;2023-08-17T05:10:09;14.30;;;6.23;;
14040;SDS011;7095;51.388;6.196;2023-08-17T05:12:40;10.17;;;6.03;;
14040;SDS011;7095;51.388;6.196;2023-08-17T05:15:09;10.27;;;5.83;;
14040;SDS011;7095;51.388;6.196;2023-08-17T05:17:39;10.67;;;6.30;;
14040;SDS011;7095;51.388;6.196;2023-08-17T05:20:11;11.90;;;5.60;;
14040;SDS011;7095;51.388;6.196;2023-08-17T05:22:41;10.33;;;5.40;;
14040;SDS011;7095;51.388;6.196;2023-08-17T05:25:10;11.37;;;5.73;;
14040;SDS011;7095;51.388;6.196;2023-08-17T05:27:40;9.33;;;5.33;;
14040;SDS011;7095;51.388;6.196;2023-08-17T05:30:09;11.60;;;6.23;;
14040;SDS011;7095;51.388;6.196;2023-08-17T05:32:39;12.57;;;5.93;;
14040;SDS011;7095;51.388;6.196;2023-08-17T05:35:09;12.83;;;5.70;;
14040;SDS011;7095;51.388;6.196;2023-08-17T05:37:39;9.67;;;5.53;;
14040;SDS011;7095;51.388;6.196;2023-08-17T05:40:08;10.60;;;5.93;;
14040;SDS011;7095;51.388;6.196;2023-08-17T05:42:37;9.40;;;5.73;;
14040;SDS011;7095;51.388;6.196;2023-08-17T05:45:06;11.90;;;5.67;;
14040;SDS011;7095;51.388;6.196;2023-08-17T05:47:35;12.20;;;5.70;;
14040;SDS011;7095;51.388;6.196;2023-08-17T05:50:04;9.20;;;5.23;;
14040;SDS011;7095;51.388;6.196;2023-08-17T05:52:33;7.17;;;5.27;;
14040;SDS011;7095;51.388;6.196;2023-08-17T05:55:03;7.70;;;5.33;;
14040;SDS011;7095;51.388;6.196;2023-08-17T05:57:33;8.47;;;5.30;;
14040;SDS011;7095;51.388;6.196;2023-08-17T06:00:02;8.80;;;5.23;;
14040;SDS011;7095;51.388;6.196;2023-08-17T06:02:38;6.40;;;5.00;;
14040;SDS011;7095;51.388;6.196;2023-08-17T06:05:07;10.10;;;5.50;;
14040;SDS011;7095;51.388;6.196;2023-08-17T06:07:36;8.47;;;5.30;;
14040;SDS011;7095;51.388;6.196;2023-08-17T06:10:06;12.90;;;5.43;;
14040;SDS011;7095;51.388;6.196;2023-08-17T06:12:35;10.00;;;5.07;;
14040;SDS011;7095;51.388;6.196;2023-08-17T06:15:04;9.23;;;4.67;;
14040;SDS011;7095;51.388;6.196;2023-08-17T06:17:34;9.13;;;5.00;;
14040;SDS011;7095;51.388;6.196;2023-08-17T06:20:02;10.40;;;4.97;;
14040;SDS011;7095;51.388;6.196;2023-08-17T06:22:31;13.63;;;5.47;;
14040;SDS011;7095;51.388;6.196;2023-08-17T06:25:00;12.40;;;5.23;;
14040;SDS011;7095;51.388;6.196;2023-08-17T06:27:31;20.93;;;6.10;;
14040;SDS011;7095;51.388;6.196;2023-08-17T06:30:00;9.03;;;5.00;;
14040;SDS011;7095;51.388;6.196;2023-08-17T06:32:31;7.83;;;5.10;;
14040;SDS011;7095;51.388;6.196;2023-08-17T06:34:59;6.80;;;5.03;;
14040;SDS011;7095;51.388;6.196;2023-08-17T06:37:28;12.63;;;4.80;;
14040;SDS011;7095;51.388;6.196;2023-08-17T06:39:56;14.03;;;5.20;;
14040;SDS011;7095;51.388;6.196;2023-08-17T06:42:25;11.80;;;4.70;;
14040;SDS011;7095;51.388;6.196;2023-08-17T06:44:55;10.00;;;4.47;;
14040;SDS011;7095;51.388;6.196;2023-08-17T06:47:24;10.57;;;5.03;;
14040;SDS011;7095;51.388;6.196;2023-08-17T06:49:54;9.93;;;4.60;;
14040;SDS011;7095;51.388;6.196;2023-08-17T06:52:24;7.53;;;4.93;;
14040;SDS011;7095;51.388;6.196;2023-08-17T06:54:52;9.53;;;5.17;;
14040;SDS011;7095;51.388;6.196;2023-08-17T06:57:22;9.10;;;4.90;;
14040;SDS011;7095;51.388;6.196;2023-08-17T06:59:51;9.13;;;5.20;;
14040;SDS011;7095;51.388;6.196;2023-08-17T07:02:21;9.07;;;5.67;;
14040;SDS011;7095;51.388;6.196;2023-08-17T07:04:50;8.37;;;5.23;;
14040;SDS011;7095;51.388;6.196;2023-08-17T07:07:19;10.13;;;5.60;;
14040;SDS011;7095;51.388;6.196;2023-08-17T07:09:47;10.23;;;6.27;;
14040;SDS011;7095;51.388;6.196;2023-08-17T07:12:16;11.27;;;6.20;;
14040;SDS011;7095;51.388;6.196;2023-08-17T07:14:46;11.73;;;6.60;;
14040;SDS011;7095;51.388;6.196;2023-08-17T07:17:14;16.67;;;7.20;;
14040;SDS011;7095;51.388;6.196;2023-08-17T07:19:44;17.33;;;8.97;;
14040;SDS011;7095;51.388;6.196;2023-08-17T07:22:33;16.80;;;9.50;;
14040;SDS011;7095;51.388;6.196;2023-08-17T07:25:03;11.43;;;7.17;;
14040;SDS011;7095;51.388;6.196;2023-08-17T07:27:33;12.33;;;8.33;;
14040;SDS011;7095;51.388;6.196;2023-08-17T07:30:02;14.07;;;7.17;;
14040;SDS011;7095;51.388;6.196;2023-08-17T07:32:31;12.17;;;6.83;;
14040;SDS011;7095;51.388;6.196;2023-08-17T07:35:02;13.57;;;7.13;;
14040;SDS011;7095;51.388;6.196;2023-08-17T07:37:31;13.00;;;7.63;;
14040;SDS011;7095;51.388;6.196;2023-08-17T07:40:00;11.80;;;7.50;;
14040;SDS011;7095;51.388;6.196;2023-08-17T07:42:30;15.47;;;8.70;;
14040;SDS011;7095;51.388;6.196;2023-08-17T07:44:59;12.53;;;7.87;;
14040;SDS011;7095;51.388;6.196;2023-08-17T07:47:31;10.83;;;8.00;;
14040;SDS011;7095;51.388;6.196;2023-08-17T07:50:01;17.37;;;8.47;;
14040;SDS011;7095;51.388;6.196;2023-08-17T07:52:31;11.03;;;8.47;;
14040;SDS011;7095;51.388;6.196;2023-08-17T07:54:59;13.23;;;8.73;;
14040;SDS011;7095;51.388;6.196;2023-08-17T07:57:28;14.03;;;8.93;;
14040;SDS011;7095;51.388;6.196;2023-08-17T07:59:58;16.33;;;9.77;;
14040;SDS011;7095;51.388;6.196;2023-08-17T08:02:33;15.43;;;9.40;;
14040;SDS011;7095;51.388;6.196;2023-08-17T08:05:04;18.10;;;9.10;;
14040;SDS011;7095;51.388;6.196;2023-08-17T08:07:34;15.60;;;11.10;;
14040;SDS011;7095;51.388;6.196;2023-08-17T08:10:03;16.90;;;11.67;;
14040;SDS011;7095;51.388;6.196;2023-08-17T08:12:32;14.57;;;11.57;;
14040;SDS011;7095;51.388;6.196;2023-08-17T08:15:00;20.70;;;12.67;;
14040;SDS011;7095;51.388;6.196;2023-08-17T08:17:29;16.53;;;11.00;;
14040;SDS011;7095;51.388;6.196;2023-08-17T08:19:58;20.47;;;11.93;;
14040;SDS011;7095;51.388;6.196;2023-08-17T08:22:28;20.70;;;12.17;;
14040;SDS011;7095;51.388;6.196;2023-08-17T08:24:57;19.53;;;12.87;;
14040;SDS011;7095;51.388;6.196;2023-08-17T08:27:26;16.83;;;12.30;;
14040;SDS011;7095;51.388;6.196;2023-08-17T08:29:54;21.27;;;12.17;;
14040;SDS011;7095;51.388;6.196;2023-08-17T08:32:24;17.03;;;11.03;;
14040;SDS011;7095;51.388;6.196;2023-08-17T08:34:54;22.33;;;14.47;;
14040;SDS011;7095;51.388;6.196;2023-08-17T08:37:23;19.70;;;12.17;;
14040;SDS011;7095;51.388;6.196;2023-08-17T08:39:54;21.17;;;12.87;;
14040;SDS011;7095;51.388;6.196;2023-08-17T08:42:23;15.13;;;11.23;;
14040;SDS011;7095;51.388;6.196;2023-08-17T08:44:53;21.00;;;11.33;;
14040;SDS011;7095;51.388;6.196;2023-08-17T08:47:22;19.57;;;10.67;;
14040;SDS011;7095;51.388;6.196;2023-08-17T08:49:56;18.47;;;9.97;;
14040;SDS011;7095;51.388;6.196;2023-08-17T08:52:32;15.53;;;9.30;;
14040;SDS011;7095;51.388;6.196;2023-08-17T08:55:05;16.47;;;9.97;;
14040;SDS011;7095;51.388;6.196;2023-08-17T08:57:39;18.53;;;9.63;;
14040;SDS011;7095;51.388;6.196;2023-08-17T09:00:09;15.70;;;8.93;;
14040;SDS011;7095;51.388;6.196;2023-08-17T09:02:41;16.80;;;10.70;;
14040;SDS011;7095;51.388;6.196;2023-08-17T09:05:10;15.37;;;10.87;;
14040;SDS011;7095;51.388;6.196;2023-08-17T09:07:40;21.87;;;10.53;;
14040;SDS011;7095;51.388;6.196;2023-08-17T09:10:12;17.80;;;10.13;;
14040;SDS011;7095;51.388;6.196;2023-08-17T09:12:43;17.50;;;10.70;;
14040;SDS011;7095;51.388;6.196;2023-08-17T09:15:15;18.30;;;10.87;;
14040;SDS011;7095;51.388;6.196;2023-08-17T09:17:44;19.27;;;10.13;;
14040;SDS011;7095;51.388;6.196;2023-08-17T09:23:05;23.03;;;10.77;;
14040;SDS011;7095;51.388;6.196;2023-08-17T09:25:41;20.63;;;11.23;;
14040;SDS011;7095;51.388;6.196;2023-08-17T09:28:12;19.30;;;13.10;;
14040;SDS011;7095;51.388;6.196;2023-08-17T09:30:51;23.33;;;12.63;;
14040;SDS011;7095;51.388;6.196;2023-08-17T09:33:23;21.80;;;11.90;;
14040;SDS011;7095;51.388;6.196;2023-08-17T09:35:54;22.73;;;12.37;;
14040;SDS011;7095;51.388;6.196;2023-08-17T09:38:25;18.60;;;12.20;;
14040;SDS011;7095;51.388;6.196;2023-08-17T09:40:56;16.93;;;10.83;;
14040;SDS011;7095;51.388;6.196;2023-08-17T09:43:26;16.27;;;10.13;;
14040;SDS011;7095;51.388;6.196;2023-08-17T09:45:57;20.07;;;11.17;;
14040;SDS011;7095;51.388;6.196;2023-08-17T09:48:28;19.63;;;9.20;;
14040;SDS011;7095;51.388;6.196;2023-08-17T09:50:59;14.67;;;9.20;;
14040;SDS011;7095;51.388;6.196;2023-08-17T09:53:29;21.77;;;10.20;;
14040;SDS011;7095;51.388;6.196;2023-08-17T09:56:05;17.03;;;10.60;;
14040;SDS011;7095;51.388;6.196;2023-08-17T09:58:43;17.43;;;10.53;;
14040;SDS011;7095;51.388;6.196;2023-08-17T10:01:12;20.50;;;11.10;;
14040;SDS011;7095;51.388;6.196;2023-08-17T10:03:42;17.13;;;11.30;;
14040;SDS011;7095;51.388;6.196;2023-08-17T10:06:13;19.63;;;12.27;;
14040;SDS011;7095;51.388;6.196;2023-08-17T10:08:46;18.53;;;11.70;;
14040;SDS011;7095;51.388;6.196;2023-08-17T10:11:18;22.10;;;11.47;;
14040;SDS011;7095;51.388;6.196;2023-08-17T10:13:51;17.43;;;10.60;;
14040;SDS011;7095;51.388;6.196;2023-08-17T10:16:26;21.50;;;14.20;;
14040;SDS011;7095;51.388;6.196;2023-08-17T10:19:04;25.67;;;15.07;;
14040;SDS011;7095;51.388;6.196;2023-08-17T10:21:39;18.73;;;14.17;;
14040;SDS011;7095;51.388;6.196;2023-08-17T10:24:11;21.03;;;14.40;;
14040;SDS011;7095;51.388;6.196;2023-08-17T10:26:41;19.50;;;13.07;;
14040;SDS011;7095;51.388;6.196;2023-08-17T10:29:11;24.33;;;14.70;;
14040;SDS011;7095;51.388;6.196;2023-08-17T10:31:43;20.93;;;13.80;;
14040;SDS011;7095;51.388;6.196;2023-08-17T10:34:13;24.30;;;14.77;;
14040;SDS011;7095;51.388;6.196;2023-08-17T10:36:43;18.20;;;13.03;;
14040;SDS011;7095;51.388;6.196;2023-08-17T10:39:22;19.30;;;12.97;;
14040;SDS011;7095;51.388;6.196;2023-08-17T10:41:57;20.73;;;13.10;;
14040;SDS011;7095;51.388;6.196;2023-08-17T10:47:23;21.20;;;12.57;;
14040;SDS011;7095;51.388;6.196;2023-08-17T10:49:55;27.97;;;15.77;;
14040;SDS011;7095;51.388;6.196;2023-08-17T10:52:25;22.00;;;14.47;;
14040;SDS011;7095;51.388;6.196;2023-08-17T10:54:55;26.17;;;15.20;;
14040;SDS011;7095;51.388;6.196;2023-08-17T10:57:27;22.30;;;14.97;;
14040;SDS011;7095;51.388;6.196;2023-08-17T11:00:13;19.40;;;14.40;;
14040;SDS011;7095;51.388;6.196;2023-08-17T11:02:51;22.40;;;14.87;;
14040;SDS011;7095;51.388;6.196;2023-08-17T11:05:37;22.73;;;15.43;;
14040;SDS011;7095;51.388;6.196;2023-08-17T11:08:09;21.37;;;14.87;;
14040;SDS011;7095;51.388;6.196;2023-08-17T11:10:40;20.27;;;14.70;;
14040;SDS011;7095;51.388;6.196;2023-08-17T11:13:15;23.10;;;15.13;;
14040;SDS011;7095;51.388;6.196;2023-08-17T11:15:44;19.37;;;13.53;;
14040;SDS011;7095;51.388;6.196;2023-08-17T11:18:15;21.17;;;14.83;;
14040;SDS011;7095;51.388;6.196;2023-08-17T11:20:43;23.97;;;15.77;;
14040;SDS011;7095;51.388;6.196;2023-08-17T11:23:13;24.23;;;16.90;;
14040;SDS011;7095;51.388;6.196;2023-08-17T11:25:42;20.10;;;15.13;;
14040;SDS011;7095;51.388;6.196;2023-08-17T11:28:11;20.43;;;15.80;;
14040;SDS011;7095;51.388;6.196;2023-08-17T11:30:42;18.60;;;13.13;;
14040;SDS011;7095;51.388;6.196;2023-08-17T11:33:13;17.23;;;11.03;;
14040;SDS011;7095;51.388;6.196;2023-08-17T11:35:42;19.23;;;12.20;;
14040;SDS011;7095;51.388;6.196;2023-08-17T11:38:11;20.07;;;13.33;;
14040;SDS011;7095;51.388;6.196;2023-08-17T11:40:39;18.23;;;13.90;;
14040;SDS011;7095;51.388;6.196;2023-08-17T11:43:08;27.43;;;17.37;;
14040;SDS011;7095;51.388;6.196;2023-08-17T11:45:38;21.00;;;16.23;;
14040;SDS011;7095;51.388;6.196;2023-08-17T11:48:10;24.87;;;19.67;;
14040;SDS011;7095;51.388;6.196;2023-08-17T11:50:38;20.60;;;18.10;;
14040;SDS011;7095;51.388;6.196;2023-08-17T11:53:07;22.47;;;18.10;;
14040;SDS011;7095;51.388;6.196;2023-08-17T11:55:36;25.17;;;16.77;;
14040;SDS011;7095;51.388;6.196;2023-08-17T11:58:05;23.03;;;18.47;;
14040;SDS011;7095;51.388;6.196;2023-08-17T12:00:37;22.33;;;17.30;;
14040;SDS011;7095;51.388;6.196;2023-08-17T12:03:12;25.97;;;18.20;;
14040;SDS011;7095;51.388;6.196;2023-08-17T12:05:41;24.03;;;17.80;;
14040;SDS011;7095;51.388;6.196;2023-08-17T12:08:13;24.57;;;18.80;;
14040;SDS011;7095;51.388;6.196;2023-08-17T12:10:42;23.37;;;18.07;;
14040;SDS011;7095;51.388;6.196;2023-08-17T12:13:12;22.87;;;18.60;;
14040;SDS011;7095;51.388;6.196;2023-08-17T12:15:41;21.53;;;18.20;;
14040;SDS011;7095;51.388;6.196;2023-08-17T12:18:11;29.60;;;18.87;;
14040;SDS011;7095;51.388;6.196;2023-08-17T12:20:40;25.70;;;19.87;;
14040;SDS011;7095;51.388;6.196;2023-08-17T12:23:12;30.80;;;22.23;;
14040;SDS011;7095;51.388;6.196;2023-08-17T12:25:40;25.40;;;20.60;;
14040;SDS011;7095;51.388;6.196;2023-08-17T12:28:11;35.10;;;24.97;;
14040;SDS011;7095;51.388;6.196;2023-08-17T12:30:40;34.73;;;27.47;;
14040;SDS011;7095;51.388;6.196;2023-08-17T12:33:09;34.33;;;27.07;;
14040;SDS011;7095;51.388;6.196;2023-08-17T12:35:39;34.50;;;26.83;;
14040;SDS011;7095;51.388;6.196;2023-08-17T12:38:07;40.33;;;27.37;;
14040;SDS011;7095;51.388;6.196;2023-08-17T12:40:36;36.93;;;28.80;;
14040;SDS011;7095;51.388;6.196;2023-08-17T12:43:04;40.00;;;26.53;;
14040;SDS011;7095;51.388;6.196;2023-08-17T12:45:33;34.27;;;26.60;;
14040;SDS011;7095;51.388;6.196;2023-08-17T12:48:02;31.27;;;26.20;;
14040;SDS011;7095;51.388;6.196;2023-08-17T12:50:31;32.03;;;27.27;;
14040;SDS011;7095;51.388;6.196;2023-08-17T12:53:01;33.23;;;26.40;;
14040;SDS011;7095;51.388;6.196;2023-08-17T12:55:30;30.87;;;25.30;;
14040;SDS011;7095;51.388;6.196;2023-08-17T12:58:01;33.43;;;25.47;;
14040;SDS011;7095;51.388;6.196;2023-08-17T13:00:30;32.70;;;24.83;;
14040;SDS011;7095;51.388;6.196;2023-08-17T13:02:58;37.83;;;27.43;;
14040;SDS011;7095;51.388;6.196;2023-08-17T13:05:27;33.50;;;26.63;;
14040;SDS011;7095;51.388;6.196;2023-08-17T13:07:56;34.77;;;25.97;;
14040;SDS011;7095;51.388;6.196;2023-08-17T13:10:26;31.63;;;25.77;;
14040;SDS011;7095;51.388;6.196;2023-08-17T13:12:54;39.57;;;29.27;;
14040;SDS011;7095;51.388;6.196;2023-08-17T13:15:26;35.27;;;25.53;;
14040;SDS011;7095;51.388;6.196;2023-08-17T13:17:55;33.27;;;25.27;;
14040;SDS011;7095;51.388;6.196;2023-08-17T13:20:23;32.47;;;25.87;;
14040;SDS011;7095;51.388;6.196;2023-08-17T13:22:52;32.43;;;26.10;;
14040;SDS011;7095;51.388;6.196;2023-08-17T13:25:20;33.30;;;26.93;;
14040;SDS011;7095;51.388;6.196;2023-08-17T13:27:50;34.33;;;26.47;;
14040;SDS011;7095;51.388;6.196;2023-08-17T13:30:19;35.77;;;26.73;;
14040;SDS011;7095;51.388;6.196;2023-08-17T13:32:48;21.97;;;18.13;;
14040;SDS011;7095;51.388;6.196;2023-08-17T13:35:16;25.23;;;18.67;;
14040;SDS011;7095;51.388;6.196;2023-08-17T13:37:45;23.47;;;19.17;;
14040;SDS011;7095;51.388;6.196;2023-08-17T13:40:18;29.07;;;21.77;;
14040;SDS011;7095;51.388;6.196;2023-08-17T13:42:47;32.87;;;23.60;;
14040;SDS011;7095;51.388;6.196;2023-08-17T13:45:17;28.40;;;20.73;;
14040;SDS011;7095;51.388;6.196;2023-08-17T13:47:45;31.33;;;23.67;;
14040;SDS011;7095;51.388;6.196;2023-08-17T13:50:14;35.70;;;25.30;;
14040;SDS011;7095;51.388;6.196;2023-08-17T13:52:45;43.43;;;31.03;;
14040;SDS011;7095;51.388;6.196;2023-08-17T13:55:14;45.93;;;33.30;;
14040;SDS011;7095;51.388;6.196;2023-08-17T13:57:42;44.50;;;34.57;;
14040;SDS011;7095;51.388;6.196;2023-08-17T14:00:12;44.33;;;33.87;;
14040;SDS011;7095;51.388;6.196;2023-08-17T14:02:43;41.10;;;33.03;;
14040;SDS011;7095;51.388;6.196;2023-08-17T14:05:11;46.00;;;33.63;;
14040;SDS011;7095;51.388;6.196;2023-08-17T14:07:40;38.93;;;31.60;;
14040;SDS011;7095;51.388;6.196;2023-08-17T14:10:09;25.87;;;21.47;;
14040;SDS011;7095;51.388;6.196;2023-08-17T14:12:54;18.70;;;15.13;;
14040;SDS011;7095;51.388;6.196;2023-08-17T14:15:23;19.00;;;14.13;;
14040;SDS011;7095;51.388;6.196;2023-08-17T14:17:53;22.80;;;14.67;;
14040;SDS011;7095;51.388;6.196;2023-08-17T14:20:22;18.67;;;14.40;;
14040;SDS011;7095;51.388;6.196;2023-08-17T14:22:51;18.13;;;14.07;;
14040;SDS011;7095;51.388;6.196;2023-08-17T14:25:19;19.30;;;14.57;;
14040;SDS011;7095;51.388;6.196;2023-08-17T14:27:48;21.10;;;13.93;;
14040;SDS011;7095;51.388;6.196;2023-08-17T14:30:16;22.63;;;14.97;;
14040;SDS011;7095;51.388;6.196;2023-08-17T14:32:45;20.00;;;14.70;;
14040;SDS011;7095;51.388;6.196;2023-08-17T14:35:15;20.87;;;13.70;;
14040;SDS011;7095;51.388;6.196;2023-08-17T14:37:44;24.20;;;15.87;;
14040;SDS011;7095;51.388;6.196;2023-08-17T14:40:12;17.33;;;13.60;;
14040;SDS011;7095;51.388;6.196;2023-08-17T14:42:41;24.13;;;16.43;;
14040;SDS011;7095;51.388;6.196;2023-08-17T14:45:10;18.27;;;14.80;;
14040;SDS011;7095;51.388;6.196;2023-08-17T14:47:39;18.73;;;15.33;;
14040;SDS011;7095;51.388;6.196;2023-08-17T14:50:08;21.20;;;16.07;;
14040;SDS011;7095;51.388;6.196;2023-08-17T14:52:39;24.70;;;17.70;;
14040;SDS011;7095;51.388;6.196;2023-08-17T14:55:07;26.80;;;19.53;;
14040;SDS011;7095;51.388;6.196;2023-08-17T14:57:37;30.00;;;20.37;;
14040;SDS011;7095;51.388;6.196;2023-08-17T15:00:07;28.53;;;18.90;;
14040;SDS011;7095;51.388;6.196;2023-08-17T15:02:42;28.57;;;20.00;;
14040;SDS011;7095;51.388;6.196;2023-08-17T15:05:11;29.60;;;19.57;;
14040;SDS011;7095;51.388;6.196;2023-08-17T15:07:41;39.53;;;22.93;;